Terminal Aerodrome Forecast
Issued by NWS

Home | Current Version | Previous Version | Text Only | Print | Product List | Glossary On
Versions: 1 2 3 4 5 6 7 8 9 10 11 12 13 14 15 16 17 18 19 20 21 22 23 24 25 26 27 28 29
803
FTUS41 KOKX 121249 AAA
TAFTEB
TAF AMD
KTEB 121249Z 1213/1318 16005KT P6SM VCSH BKN035 OVC050
     FM121400 19008KT 6SM -SHRA BKN020 OVC040
     FM122000 24009KT P6SM SCT020 OVC060
     FM122300 27015G26KT P6SM BKN050
     FM130200 28018G29KT P6SM -SHSN BKN050
     FM130700 28020G34KT P6SM SCT040 BKN100
     FM131300 29022G36KT P6SM BKN100=

USA.gov is the U.S. government's official web portal to all federal, state and local government web resources and services.